createdAt,value
2019-02-10T00:02:17.869Z,96.80
2019-02-10T00:04:47.955Z,96.80
2019-02-10T00:07:17.882Z,96.70
2019-02-10T00:09:48.002Z,96.70
2019-02-10T00:12:18.045Z,96.70
2019-02-10T00:14:48.173Z,96.80
2019-02-10T00:17:18.383Z,96.70
2019-02-10T00:19:48.379Z,96.60
2019-02-10T00:22:20.284Z,96.50
2019-02-10T00:24:50.372Z,96.60
2019-02-10T00:27:20.416Z,96.60
2019-02-10T00:29:50.308Z,96.60
2019-02-10T00:32:20.551Z,96.60
2019-02-10T00:34:52.044Z,96.50
2019-02-10T00:37:22.029Z,96.60
2019-02-10T00:39:52.111Z,96.50
2019-02-10T00:42:24.343Z,96.50
2019-02-10T00:44:54.383Z,96.50
2019-02-10T00:47:24.478Z,96.50
2019-02-10T00:49:54.875Z,96.50
2019-02-10T00:52:24.949Z,96.40
2019-02-10T00:54:55.056Z,96.40
2019-02-10T00:57:24.990Z,96.50
2019-02-10T00:59:55.063Z,96.40
2019-02-10T01:02:25.136Z,96.40
2019-02-10T01:04:56.828Z,96.30
2019-02-10T01:07:26.837Z,96.50
2019-02-10T01:09:56.856Z,96.50
2019-02-10T01:12:28.900Z,96.50
2019-02-10T01:14:58.984Z,96.60
2019-02-10T01:17:30.896Z,96.70
2019-02-10T01:20:00.901Z,96.60
2019-02-10T01:22:31.130Z,96.60
2019-02-10T01:25:02.114Z,96.60
2019-02-10T01:27:32.349Z,96.60
2019-02-10T01:30:04.720Z,96.70
2019-02-10T01:32:36.921Z,96.70
2019-02-10T01:35:07.466Z,96.80
2019-02-10T01:37:37.632Z,96.90
2019-02-10T01:40:08.815Z,96.90
2019-02-10T01:42:38.975Z,96.90
2019-02-10T01:45:10.467Z,96.90
2019-02-10T01:47:40.595Z,96.80
2019-02-10T01:50:11.478Z,96.80
2019-02-10T01:52:41.455Z,96.90
2019-02-10T01:55:13.139Z,96.90
2019-02-10T01:57:43.249Z,97.00
2019-02-10T02:00:15.057Z,97.10
2019-02-10T02:02:45.156Z,97.00
2019-02-10T02:05:15.298Z,97.10
2019-02-10T02:07:45.339Z,97.10
2019-02-10T02:10:18.136Z,97.10
2019-02-10T02:12:49.854Z,97.20
2019-02-10T02:15:21.815Z,97.20
2019-02-10T02:17:51.795Z,97.20
2019-02-10T02:20:21.775Z,97.20
2019-02-10T02:22:53.003Z,97.10
2019-02-10T02:25:23.040Z,97.20
2019-02-10T02:27:56.037Z,97.20
2019-02-10T02:30:38.294Z,97.20
2019-02-10T02:33:21.017Z,97.20
2019-02-10T02:35:51.191Z,97.20
2019-02-10T02:38:21.224Z,97.20
2019-02-10T02:40:51.252Z,97.10
2019-02-10T02:43:21.317Z,97.20
2019-02-10T02:45:51.616Z,97.30
2019-02-10T02:48:21.532Z,97.30
2019-02-10T02:50:51.691Z,97.30
2019-02-10T02:53:21.628Z,97.30
2019-02-10T02:55:51.748Z,97.20
2019-02-10T02:58:21.763Z,97.30
2019-02-10T03:00:52.072Z,97.20
2019-02-10T03:03:22.021Z,97.20
2019-02-10T03:05:52.118Z,97.20
2019-02-10T03:08:22.381Z,97.20
2019-02-10T03:10:52.459Z,97.20
2019-02-10T03:13:22.498Z,97.20
2019-02-10T03:15:52.832Z,97.10
2019-02-10T03:18:22.897Z,97.10
2019-02-10T03:20:52.871Z,97.10
2019-02-10T03:23:22.776Z,97.00
2019-02-10T03:25:52.719Z,97.00
2019-02-10T03:28:23.635Z,97.10
2019-02-10T03:31:06.157Z,97.20
2019-02-10T03:33:36.194Z,97.10
2019-02-10T03:36:25.359Z,97.30
2019-02-10T03:38:55.397Z,97.20
2019-02-10T03:41:25.314Z,97.30
2019-02-10T03:43:55.509Z,97.30
2019-02-10T03:46:25.497Z,97.50
2019-02-10T03:48:55.432Z,97.50
2019-02-10T03:51:25.311Z,97.40
2019-02-10T03:54:08.429Z,97.50
2019-02-10T03:56:39.483Z,97.40
2019-02-10T03:59:09.501Z,97.50
2019-02-10T04:01:39.420Z,97.60
2019-02-10T04:04:09.406Z,97.60
2019-02-10T04:06:39.324Z,98.00
2019-02-10T04:09:09.482Z,97.70
2019-02-10T04:11:39.498Z,97.80
2019-02-10T04:14:09.467Z,97.80
2019-02-10T04:16:39.442Z,97.90
2019-02-10T04:19:09.467Z,97.90
2019-02-10T04:21:39.857Z,97.90
2019-02-10T04:24:09.811Z,98.00
2019-02-10T04:26:39.947Z,97.90
2019-02-10T04:29:09.892Z,97.90
2019-02-10T04:31:39.782Z,98.00
2019-02-10T04:34:09.619Z,98.00
2019-02-10T04:36:39.547Z,98.00
2019-02-10T04:39:09.493Z,98.10
2019-02-10T04:41:39.392Z,98.20
2019-02-10T04:44:09.343Z,98.20
2019-02-10T04:46:39.422Z,98.10
2019-02-10T04:49:09.379Z,98.20
2019-02-10T04:51:39.450Z,98.20
2019-02-10T04:54:09.334Z,98.30
2019-02-10T04:56:39.280Z,98.30
2019-02-10T04:59:09.881Z,98.40
2019-02-10T05:01:40.261Z,98.40
2019-02-10T05:04:10.242Z,98.40
2019-02-10T05:06:40.286Z,98.40
2019-02-10T05:09:10.261Z,98.40
2019-02-10T05:11:40.378Z,98.50
2019-02-10T05:14:10.387Z,98.60
2019-02-10T05:16:40.399Z,98.60
2019-02-10T05:19:10.418Z,98.60
2019-02-10T05:21:40.411Z,98.60
2019-02-10T05:24:10.385Z,98.50
2019-02-10T05:26:40.479Z,98.50
2019-02-10T05:29:10.597Z,98.60
2019-02-10T05:31:40.650Z,98.50
2019-02-10T05:34:10.589Z,98.50
2019-02-10T05:36:40.875Z,98.50
2019-02-10T05:39:10.846Z,98.50
2019-02-10T05:41:41.823Z,98.60
2019-02-10T05:44:12.374Z,98.50
2019-02-10T05:46:46.306Z,98.60
2019-02-10T05:49:19.099Z,98.50
2019-02-10T05:51:49.232Z,98.50
2019-02-10T05:54:19.337Z,98.50
2019-02-10T05:56:49.399Z,98.60
2019-02-10T05:59:19.477Z,98.50
2019-02-10T06:02:27.698Z,98.50
2019-02-10T06:05:00.875Z,98.40
2019-02-10T06:07:30.978Z,98.60
2019-02-10T06:10:01.047Z,98.50
2019-02-10T06:12:31.200Z,98.50
2019-02-10T06:15:01.445Z,98.50
2019-02-10T06:17:31.597Z,98.50
2019-02-10T06:20:01.853Z,98.40
2019-02-10T06:22:31.910Z,98.40
2019-02-10T06:25:02.097Z,98.40
2019-02-10T06:27:32.058Z,98.30
2019-02-10T06:30:02.104Z,98.40
2019-02-10T06:32:32.305Z,98.40
2019-02-10T06:35:02.334Z,98.30
2019-02-10T06:37:32.431Z,98.30
2019-02-10T06:40:02.582Z,98.30
2019-02-10T06:42:32.763Z,98.20
2019-02-10T06:45:02.823Z,98.10
2019-02-10T06:47:32.882Z,98.10
2019-02-10T06:50:03.109Z,98.10
2019-02-10T06:52:33.999Z,98.10
2019-02-10T06:55:17.442Z,98.00
2019-02-10T06:57:47.710Z,97.90
2019-02-10T07:00:29.319Z,97.90
2019-02-10T07:03:56.746Z,97.80
2019-02-10T07:06:27.232Z,97.80
2019-02-10T07:08:57.403Z,97.60
2019-02-10T07:11:27.492Z,97.50
2019-02-10T07:13:59.640Z,97.50
2019-02-10T07:16:57.240Z,97.50
2019-02-10T07:20:05.840Z,97.40
2019-02-10T07:22:56.579Z,97.30
2019-02-10T07:25:46.422Z,97.30
2019-02-10T07:28:40.285Z,97.00
2019-02-10T07:31:10.582Z,96.90
2019-02-10T07:34:02.123Z,96.60
2019-02-10T07:36:56.347Z,96.50
2019-02-10T07:39:50.573Z,96.10
2019-02-10T07:42:49.816Z,96.30
2019-02-10T07:45:58.162Z,96.20
2019-02-10T07:48:36.913Z,96.20
2019-02-10T07:51:34.041Z,96.20
2019-02-10T07:54:16.807Z,96.00
2019-02-10T07:57:26.989Z,95.80
2019-02-10T08:00:22.173Z,95.80
2019-02-10T08:03:17.779Z,95.60
2019-02-10T08:06:26.217Z,95.40
2019-02-10T08:09:34.907Z,95.20
2019-02-10T08:12:43.920Z,95.30
2019-02-10T08:15:42.432Z,95.20
2019-02-10T08:18:21.587Z,95.10
2019-02-10T08:21:18.536Z,95.20
2019-02-10T08:23:59.466Z,94.90
2019-02-10T08:27:07.913Z,95.00
2019-02-10T08:30:01.450Z,94.60
2019-02-10T08:32:55.240Z,94.20
2019-02-10T08:35:49.070Z,94.50
2019-02-10T08:38:54.426Z,94.10
2019-02-10T08:42:00.737Z,93.90
2019-02-10T08:44:44.887Z,93.50
2019-02-10T08:47:40.462Z,93.40
2019-02-10T08:50:38.942Z,93.60
2019-02-10T08:53:20.520Z,93.70
2019-02-10T08:55:53.232Z,94.00
2019-02-10T08:58:37.907Z,93.50
2019-02-10T09:01:08.780Z,93.40
2019-02-10T09:03:39.643Z,93.00
2019-02-10T09:06:10.533Z,92.60
2019-02-10T09:08:41.188Z,92.80
2019-02-10T09:11:14.120Z,93.10
2019-02-10T09:13:47.559Z,92.40
2019-02-10T09:16:22.262Z,92.50
2019-02-10T09:19:02.557Z,92.50
2019-02-10T09:21:58.481Z,92.20
2019-02-10T09:24:39.286Z,92.20
2019-02-10T09:27:10.693Z,92.10
2019-02-10T09:29:40.936Z,91.70
2019-02-10T09:32:12.471Z,92.00
2019-02-10T09:34:54.572Z,91.60
2019-02-10T09:37:27.075Z,91.50
2019-02-10T09:39:57.251Z,91.10
2019-02-10T09:42:32.024Z,91.20
2019-02-10T09:45:05.741Z,90.90
2019-02-10T09:47:36.701Z,90.80
2019-02-10T09:50:13.208Z,91.00
2019-02-10T09:52:50.130Z,90.70
2019-02-10T09:55:22.761Z,90.50
2019-02-10T09:57:56.397Z,90.80
2019-02-10T10:00:31.801Z,90.40
2019-02-10T10:03:07.715Z,90.40
2019-02-10T10:05:39.488Z,90.70
2019-02-10T10:08:22.155Z,90.20
2019-02-10T10:10:54.955Z,89.70
2019-02-10T10:13:25.080Z,89.10
2019-02-10T10:15:55.313Z,88.80
2019-02-10T10:18:25.446Z,89.40
2019-02-10T10:21:07.182Z,90.20
2019-02-10T10:23:37.792Z,89.60
2019-02-10T10:26:07.925Z,89.70
2019-02-10T10:28:38.038Z,89.80
2019-02-10T10:31:09.348Z,89.10
2019-02-10T10:33:39.608Z,88.10
2019-02-10T10:36:09.962Z,86.20
2019-02-10T10:38:52.398Z,86.50
2019-02-10T10:41:22.630Z,87.40
2019-02-10T10:43:54.082Z,87.40
2019-02-10T10:46:24.195Z,87.10
2019-02-10T10:48:54.602Z,84.60
2019-02-10T10:51:24.954Z,85.90
2019-02-10T10:53:55.195Z,84.30
2019-02-10T10:56:27.032Z,84.00
2019-02-10T10:58:59.663Z,84.60
2019-02-10T11:01:42.635Z,83.70
2019-02-10T11:04:13.168Z,83.30
2019-02-10T11:06:43.250Z,83.00
2019-02-10T11:09:14.463Z,82.20
2019-02-10T11:11:44.802Z,82.00
2019-02-10T11:14:15.114Z,82.30
2019-02-10T11:16:45.434Z,81.40
2019-02-10T11:19:15.581Z,82.20
2019-02-10T11:21:45.755Z,81.80
2019-02-10T11:24:15.962Z,83.20
2019-02-10T11:26:46.192Z,81.50
2019-02-10T11:29:16.589Z,82.10
2019-02-10T11:31:46.627Z,81.60
2019-02-10T11:34:16.912Z,81.10
2019-02-10T11:36:46.947Z,80.60
2019-02-10T11:39:17.196Z,81.00
2019-02-10T11:41:47.252Z,81.20
2019-02-10T11:44:17.604Z,82.00
2019-02-10T11:46:47.947Z,81.60
2019-02-10T11:49:19.755Z,79.70
2019-02-10T11:51:49.954Z,79.50
2019-02-10T11:54:20.306Z,80.20
2019-02-10T11:56:50.643Z,79.90
2019-02-10T11:59:20.735Z,77.80
2019-02-10T12:01:50.854Z,78.00
2019-02-10T12:04:20.951Z,77.30
2019-02-10T12:06:50.975Z,77.10
2019-02-10T12:09:21.093Z,76.10
2019-02-10T12:11:51.228Z,75.40
2019-02-10T12:14:21.524Z,75.10
2019-02-10T12:16:51.656Z,74.30
2019-02-10T12:19:21.708Z,73.50
2019-02-10T12:21:51.750Z,73.20
2019-02-10T12:24:22.370Z,73.90
2019-02-10T12:26:52.455Z,73.40
2019-02-10T12:29:22.637Z,74.80
2019-02-10T12:31:52.724Z,74.80
2019-02-10T12:34:24.068Z,75.00
2019-02-10T12:36:54.561Z,75.50
2019-02-10T12:39:24.848Z,75.20
2019-02-10T12:41:55.108Z,75.10
2019-02-10T12:44:25.328Z,75.10
2019-02-10T12:46:55.428Z,75.00
2019-02-10T12:49:25.500Z,74.20
2019-02-10T12:51:55.565Z,72.90
2019-02-10T12:54:25.626Z,71.70
2019-02-10T12:56:55.780Z,71.00
2019-02-10T12:59:25.915Z,70.10
2019-02-10T13:01:56.094Z,67.90
2019-02-10T13:04:26.297Z,67.50
2019-02-10T13:06:56.398Z,66.70
2019-02-10T13:09:26.485Z,66.30
2019-02-10T13:11:58.438Z,65.50
2019-02-10T13:14:28.512Z,65.10
2019-02-10T13:16:59.377Z,64.90
2019-02-10T13:19:29.507Z,65.20
2019-02-10T13:21:59.685Z,65.60
2019-02-10T13:24:29.705Z,65.50
2019-02-10T13:26:59.962Z,65.50
2019-02-10T13:29:30.288Z,65.40
2019-02-10T13:32:00.411Z,65.90
2019-02-10T13:34:30.705Z,66.60
2019-02-10T13:37:00.898Z,67.30
2019-02-10T13:39:30.965Z,66.60
2019-02-10T13:42:02.772Z,67.60
2019-02-10T13:44:33.006Z,67.80
2019-02-10T13:47:03.225Z,67.90
2019-02-10T13:49:34.357Z,68.10
2019-02-10T13:52:04.450Z,68.60
2019-02-10T13:54:36.439Z,69.30
2019-02-10T13:57:06.417Z,69.10
2019-02-10T13:59:36.768Z,69.90
2019-02-10T14:02:06.956Z,70.30
2019-02-10T14:04:37.157Z,70.30
2019-02-10T14:07:07.269Z,70.70
2019-02-10T14:09:37.410Z,70.30
2019-02-10T14:12:07.579Z,70.30
2019-02-10T14:14:37.800Z,69.40
2019-02-10T14:17:07.885Z,69.30
2019-02-10T14:19:39.023Z,69.30
2019-02-10T14:22:09.118Z,69.10
2019-02-10T14:24:39.277Z,70.20
2019-02-10T14:27:09.315Z,71.10
2019-02-10T14:29:39.403Z,72.30
2019-02-10T14:32:09.574Z,73.70
2019-02-10T14:34:39.663Z,74.60
2019-02-10T14:37:09.734Z,75.30
2019-02-10T14:39:39.877Z,76.20
2019-02-10T14:42:09.933Z,76.70
2019-02-10T14:44:40.025Z,78.50
2019-02-10T14:47:10.285Z,79.00
2019-02-10T14:49:40.340Z,80.00
2019-02-10T14:52:10.638Z,80.50
2019-02-10T14:54:40.900Z,80.60
2019-02-10T14:57:11.159Z,80.70
2019-02-10T14:59:41.282Z,81.30
2019-02-10T15:02:13.477Z,81.50
2019-02-10T15:04:43.608Z,82.00
2019-02-10T15:07:13.777Z,82.50
2019-02-10T15:09:43.812Z,82.40
2019-02-10T15:12:14.010Z,82.60
2019-02-10T15:14:44.157Z,82.30
2019-02-10T15:17:27.062Z,82.30
2019-02-10T15:20:01.668Z,82.60
2019-02-10T15:22:32.398Z,82.20
2019-02-10T15:25:03.789Z,82.60
2019-02-10T15:27:36.257Z,82.50
2019-02-10T15:30:16.150Z,83.10
2019-02-10T15:32:51.727Z,83.10
2019-02-10T15:35:31.857Z,83.20
2019-02-10T15:38:04.818Z,84.30
2019-02-10T15:40:35.479Z,83.80
2019-02-10T15:43:10.555Z,84.10
2019-02-10T15:45:42.530Z,84.40
2019-02-10T15:48:12.615Z,84.80
2019-02-10T15:50:43.995Z,84.80
2019-02-10T15:53:26.265Z,84.90
2019-02-10T15:55:56.232Z,85.20
2019-02-10T15:58:26.580Z,85.70
2019-02-10T16:00:56.770Z,86.00
2019-02-10T16:03:26.898Z,86.60
2019-02-10T16:05:57.231Z,87.00
2019-02-10T16:08:27.602Z,87.20
2019-02-10T16:10:59.962Z,87.30
2019-02-10T16:13:30.656Z,87.60
2019-02-10T16:16:05.907Z,87.60
2019-02-10T16:18:36.237Z,87.70
2019-02-10T16:21:06.824Z,87.70
2019-02-10T16:23:38.175Z,87.80
2019-02-10T16:26:08.698Z,87.80
2019-02-10T16:28:39.658Z,87.70
2019-02-10T16:31:11.038Z,87.80
2019-02-10T16:33:41.993Z,88.00
2019-02-10T16:36:13.653Z,88.20
2019-02-10T16:38:44.028Z,88.50
2019-02-10T16:41:14.899Z,88.90
2019-02-10T16:43:45.365Z,88.90
2019-02-10T16:46:16.180Z,88.90
2019-02-10T16:48:46.723Z,89.00
2019-02-10T16:51:18.932Z,89.30
2019-02-10T16:53:49.213Z,89.30
2019-02-10T16:56:47.950Z,89.00
2019-02-10T16:59:48.195Z,89.10
2019-02-10T17:02:36.200Z,89.00
2019-02-10T17:05:37.209Z,88.80
2019-02-10T17:08:46.821Z,88.70
2019-02-10T17:11:55.540Z,89.10
2019-02-10T17:14:36.477Z,88.90
2019-02-10T17:17:30.602Z,89.60
2019-02-10T17:20:32.384Z,88.10
2019-02-10T17:23:45.361Z,88.10
2019-02-10T17:26:36.608Z,88.20
2019-02-10T17:29:07.277Z,88.00
2019-02-10T17:31:39.494Z,87.70
2019-02-10T17:34:09.819Z,87.70
2019-02-10T17:36:40.204Z,88.00
2019-02-10T17:39:15.593Z,87.60
2019-02-10T17:41:54.594Z,87.80
2019-02-10T17:44:30.182Z,87.80
2019-02-10T17:47:16.053Z,88.20
2019-02-10T17:49:47.287Z,88.00
2019-02-10T17:52:17.836Z,87.90
2019-02-10T17:55:07.318Z,87.70
2019-02-10T17:57:48.625Z,88.00
2019-02-10T18:00:23.196Z,87.90
2019-02-10T18:02:53.794Z,87.80
2019-02-10T18:05:24.134Z,88.10
2019-02-10T18:07:54.413Z,88.00
2019-02-10T18:10:24.814Z,88.20
2019-02-10T18:12:56.234Z,87.90
2019-02-10T18:15:45.454Z,87.70
2019-02-10T18:18:36.294Z,87.70
2019-02-10T18:21:25.540Z,87.60
2019-02-10T18:24:15.014Z,88.00
2019-02-10T18:26:59.892Z,88.80
2019-02-10T18:29:38.274Z,87.90
2019-02-10T18:32:27.568Z,87.90
2019-02-10T18:35:17.038Z,87.90
2019-02-10T18:37:56.675Z,88.20
2019-02-10T18:40:46.016Z,88.30
2019-02-10T18:43:35.334Z,88.20
2019-02-10T18:46:14.994Z,88.20
2019-02-10T18:48:57.594Z,88.30
2019-02-10T18:51:44.232Z,88.60
2019-02-10T18:54:59.227Z,88.40
2019-02-10T18:58:03.031Z,88.50
2019-02-10T19:01:06.574Z,88.20
2019-02-10T19:04:00.852Z,88.30
2019-02-10T19:06:50.084Z,88.00
2019-02-10T19:09:39.504Z,88.00
2019-02-10T19:12:15.435Z,88.00
2019-02-10T19:15:04.798Z,88.00
2019-02-10T19:17:55.013Z,88.10
2019-02-10T19:20:46.157Z,88.10
2019-02-10T19:23:35.265Z,88.10
2019-02-10T19:26:24.590Z,88.20
2019-02-10T19:29:13.683Z,88.20
2019-02-10T19:31:58.829Z,88.20
2019-02-10T19:34:52.609Z,88.30
2019-02-10T19:37:40.541Z,88.40
2019-02-10T19:40:29.009Z,88.40
2019-02-10T19:43:18.249Z,88.30
2019-02-10T19:45:57.183Z,88.00
2019-02-10T19:48:49.791Z,88.00
2019-02-10T19:51:48.070Z,87.80
2019-02-10T19:54:24.923Z,88.20
2019-02-10T19:57:14.298Z,88.70
2019-02-10T20:00:02.051Z,88.70
2019-02-10T20:02:51.402Z,89.00
2019-02-10T20:05:28.094Z,89.20
2019-02-10T20:08:20.110Z,89.30
2019-02-10T20:11:20.465Z,90.10
2019-02-10T20:14:09.662Z,89.80
2019-02-10T20:16:58.966Z,90.00
2019-02-10T20:19:42.146Z,90.00
2019-02-10T20:22:24.342Z,90.10
2019-02-10T20:25:12.642Z,90.10
2019-02-10T20:27:57.322Z,90.10
2019-02-10T20:30:46.498Z,90.10
2019-02-10T20:33:59.598Z,90.20
2019-02-10T20:37:16.782Z,90.20
2019-02-10T20:40:16.898Z,90.10
2019-02-10T20:43:19.915Z,90.10
2019-02-10T20:46:25.593Z,90.10
2019-02-10T20:49:23.703Z,90.10
2019-02-10T20:52:14.691Z,90.20
2019-02-10T20:54:57.683Z,90.30
2019-02-10T20:57:37.127Z,90.30
2019-02-10T21:00:26.099Z,90.20
2019-02-10T21:03:15.374Z,90.20
2019-02-10T21:06:04.426Z,90.30
2019-02-10T21:08:53.623Z,90.60
2019-02-10T21:11:39.873Z,90.30
2019-02-10T21:14:21.438Z,90.20
2019-02-10T21:17:05.575Z,90.30
2019-02-10T21:19:54.808Z,90.30
2019-02-10T21:22:32.931Z,90.40
2019-02-10T21:25:21.889Z,90.30
2019-02-10T21:28:01.304Z,90.30
2019-02-10T21:30:44.244Z,90.50
2019-02-10T21:33:33.428Z,90.50
2019-02-10T21:36:22.604Z,90.50
2019-02-10T21:39:01.505Z,90.60
2019-02-10T21:41:52.340Z,90.50
2019-02-10T21:44:41.417Z,90.60
2019-02-10T21:47:23.916Z,90.40
2019-02-10T21:49:53.982Z,90.30
2019-02-10T21:52:24.109Z,90.20
2019-02-10T21:54:54.267Z,90.20
2019-02-10T21:57:24.981Z,90.20
2019-02-10T21:59:57.181Z,90.30
2019-02-10T22:02:27.217Z,90.40
2019-02-10T22:04:57.330Z,90.50
2019-02-10T22:07:27.628Z,90.30
2019-02-10T22:09:57.858Z,90.40
2019-02-10T22:12:36.833Z,90.40
2019-02-10T22:15:01.155Z,90.40
2019-02-10T22:17:31.436Z,90.40
2019-02-10T22:20:01.624Z,90.50
2019-02-10T22:22:31.740Z,90.50
2019-02-10T22:25:02.303Z,90.50
2019-02-10T22:27:32.559Z,90.70
2019-02-10T22:30:02.657Z,90.60
2019-02-10T22:32:32.819Z,90.70
2019-02-10T22:35:02.821Z,90.80
2019-02-10T22:37:33.060Z,90.80
2019-02-10T22:40:03.284Z,90.80
2019-02-10T22:42:33.404Z,90.90
2019-02-10T22:45:03.610Z,90.90
2019-02-10T22:47:33.862Z,90.90
2019-02-10T22:50:06.178Z,91.00
2019-02-10T22:52:36.283Z,91.10
2019-02-10T22:55:06.838Z,91.10
2019-02-10T22:57:37.009Z,91.20
2019-02-10T23:00:47.951Z,91.30
2019-02-10T23:03:18.669Z,91.50
2019-02-10T23:05:48.872Z,91.50
2019-02-10T23:08:19.451Z,91.70
2019-02-10T23:10:52.009Z,91.80
2019-02-10T23:13:34.874Z,91.90
2019-02-10T23:16:06.276Z,92.00
2019-02-10T23:18:36.463Z,92.00
2019-02-10T23:21:06.564Z,92.10
2019-02-10T23:23:36.523Z,92.10
2019-02-10T23:26:06.823Z,92.20
2019-02-10T23:28:36.913Z,92.40
2019-02-10T23:31:19.913Z,92.50
2019-02-10T23:33:49.933Z,92.50
2019-02-10T23:36:20.011Z,92.60
2019-02-10T23:38:49.981Z,92.60
2019-02-10T23:41:20.078Z,92.70
2019-02-10T23:43:50.204Z,92.80
2019-02-10T23:46:20.442Z,92.90
2019-02-10T23:48:50.576Z,92.80
2019-02-10T23:51:20.531Z,92.90
2019-02-10T23:53:50.477Z,92.90
2019-02-10T23:56:20.484Z,93.00
2019-02-10T23:58:50.509Z,93.10
